sensor_id;sensor_type;location;lat;lon;timestamp;P1;durP1;ratioP1;P2;durP2;ratioP2
29662;SDS011;16578;53.266;7.920;2024-03-25T00:00:54;2.58;;;1.63;;
29662;SDS011;16578;53.266;7.920;2024-03-25T00:03:20;4.07;;;2.42;;
29662;SDS011;16578;53.266;7.920;2024-03-25T00:05:45;4.60;;;2.47;;
29662;SDS011;16578;53.266;7.920;2024-03-25T00:08:11;3.30;;;1.60;;
29662;SDS011;16578;53.266;7.920;2024-03-25T00:10:37;8.60;;;2.38;;
29662;SDS011;16578;53.266;7.920;2024-03-25T00:13:02;7.75;;;2.25;;
29662;SDS011;16578;53.266;7.920;2024-03-25T00:15:29;2.33;;;1.80;;
29662;SDS011;16578;53.266;7.920;2024-03-25T00:17:54;2.90;;;1.67;;
29662;SDS011;16578;53.266;7.920;2024-03-25T00:20:20;3.65;;;1.73;;
29662;SDS011;16578;53.266;7.920;2024-03-25T00:22:45;3.72;;;1.92;;
29662;SDS011;16578;53.266;7.920;2024-03-25T00:25:11;5.25;;;1.98;;
29662;SDS011;16578;53.266;7.920;2024-03-25T00:27:37;5.05;;;1.75;;
29662;SDS011;16578;53.266;7.920;2024-03-25T00:30:02;3.58;;;1.40;;
29662;SDS011;16578;53.266;7.920;2024-03-25T00:32:29;4.28;;;1.42;;
29662;SDS011;16578;53.266;7.920;2024-03-25T00:34:55;4.10;;;1.45;;
29662;SDS011;16578;53.266;7.920;2024-03-25T00:37:21;3.40;;;1.40;;
29662;SDS011;16578;53.266;7.920;2024-03-25T00:39:47;2.75;;;1.65;;
29662;SDS011;16578;53.266;7.920;2024-03-25T00:42:12;4.00;;;1.52;;
29662;SDS011;16578;53.266;7.920;2024-03-25T00:44:38;3.58;;;1.40;;
29662;SDS011;16578;53.266;7.920;2024-03-25T00:47:03;6.15;;;1.75;;
29662;SDS011;16578;53.266;7.920;2024-03-25T00:49:29;3.08;;;1.40;;
29662;SDS011;16578;53.266;7.920;2024-03-25T00:51:55;5.45;;;1.42;;
29662;SDS011;16578;53.266;7.920;2024-03-25T00:54:21;3.40;;;1.40;;
29662;SDS011;16578;53.266;7.920;2024-03-25T00:56:48;5.68;;;1.38;;
29662;SDS011;16578;53.266;7.920;2024-03-25T00:59:14;3.50;;;1.35;;
29662;SDS011;16578;53.266;7.920;2024-03-25T01:01:40;4.88;;;1.73;;
29662;SDS011;16578;53.266;7.920;2024-03-25T01:04:05;5.15;;;1.70;;
29662;SDS011;16578;53.266;7.920;2024-03-25T01:06:31;10.93;;;1.77;;
29662;SDS011;16578;53.266;7.920;2024-03-25T01:08:56;2.33;;;1.10;;
29662;SDS011;16578;53.266;7.920;2024-03-25T01:11:22;2.72;;;1.27;;
29662;SDS011;16578;53.266;7.920;2024-03-25T01:13:48;4.47;;;1.40;;
29662;SDS011;16578;53.266;7.920;2024-03-25T01:16:14;7.70;;;1.98;;
29662;SDS011;16578;53.266;7.920;2024-03-25T01:18:39;2.58;;;1.55;;
29662;SDS011;16578;53.266;7.920;2024-03-25T01:21:05;4.47;;;1.45;;
29662;SDS011;16578;53.266;7.920;2024-03-25T01:23:31;4.13;;;1.40;;
29662;SDS011;16578;53.266;7.920;2024-03-25T01:25:56;3.55;;;1.63;;
29662;SDS011;16578;53.266;7.920;2024-03-25T01:28:22;5.60;;;1.60;;
29662;SDS011;16578;53.266;7.920;2024-03-25T01:30:48;3.95;;;1.30;;
29662;SDS011;16578;53.266;7.920;2024-03-25T01:33:14;6.10;;;1.80;;
29662;SDS011;16578;53.266;7.920;2024-03-25T01:35:40;4.32;;;1.85;;
29662;SDS011;16578;53.266;7.920;2024-03-25T01:38:05;4.85;;;1.30;;
29662;SDS011;16578;53.266;7.920;2024-03-25T01:40:31;4.15;;;1.20;;
29662;SDS011;16578;53.266;7.920;2024-03-25T01:42:57;5.20;;;1.58;;
29662;SDS011;16578;53.266;7.920;2024-03-25T01:45:26;2.35;;;1.20;;
29662;SDS011;16578;53.266;7.920;2024-03-25T01:47:54;2.22;;;1.38;;
29662;SDS011;16578;53.266;7.920;2024-03-25T01:50:21;3.95;;;1.63;;
29662;SDS011;16578;53.266;7.920;2024-03-25T01:52:47;3.80;;;1.83;;
29662;SDS011;16578;53.266;7.920;2024-03-25T01:55:17;4.28;;;1.55;;
29662;SDS011;16578;53.266;7.920;2024-03-25T01:57:46;3.80;;;1.40;;
29662;SDS011;16578;53.266;7.920;2024-03-25T02:00:12;2.58;;;1.20;;
29662;SDS011;16578;53.266;7.920;2024-03-25T02:05:09;1.90;;;1.23;;
29662;SDS011;16578;53.266;7.920;2024-03-25T02:07:35;3.20;;;1.50;;
29662;SDS011;16578;53.266;7.920;2024-03-25T02:10:02;6.15;;;1.50;;
29662;SDS011;16578;53.266;7.920;2024-03-25T02:12:30;6.28;;;1.98;;
29662;SDS011;16578;53.266;7.920;2024-03-25T02:14:57;4.50;;;1.95;;
29662;SDS011;16578;53.266;7.920;2024-03-25T02:17:24;6.40;;;1.70;;
29662;SDS011;16578;53.266;7.920;2024-03-25T02:19:50;7.80;;;1.65;;
29662;SDS011;16578;53.266;7.920;2024-03-25T02:22:16;6.65;;;1.77;;
29662;SDS011;16578;53.266;7.920;2024-03-25T02:24:42;5.68;;;1.30;;
29662;SDS011;16578;53.266;7.920;2024-03-25T02:27:10;4.53;;;1.42;;
29662;SDS011;16578;53.266;7.920;2024-03-25T02:29:39;8.00;;;1.65;;
29662;SDS011;16578;53.266;7.920;2024-03-25T02:32:05;7.82;;;1.70;;
29662;SDS011;16578;53.266;7.920;2024-03-25T02:34:35;5.45;;;1.70;;
29662;SDS011;16578;53.266;7.920;2024-03-25T02:37:04;6.53;;;1.67;;
29662;SDS011;16578;53.266;7.920;2024-03-25T02:39:31;5.80;;;1.70;;
29662;SDS011;16578;53.266;7.920;2024-03-25T02:41:56;4.55;;;1.60;;
29662;SDS011;16578;53.266;7.920;2024-03-25T02:44:22;7.50;;;1.98;;
29662;SDS011;16578;53.266;7.920;2024-03-25T02:46:48;7.38;;;1.92;;
29662;SDS011;16578;53.266;7.920;2024-03-25T02:49:14;10.02;;;2.05;;
29662;SDS011;16578;53.266;7.920;2024-03-25T02:51:40;6.32;;;1.70;;
29662;SDS011;16578;53.266;7.920;2024-03-25T02:54:06;7.07;;;1.95;;
29662;SDS011;16578;53.266;7.920;2024-03-25T02:56:33;4.63;;;1.50;;
29662;SDS011;16578;53.266;7.920;2024-03-25T02:58:59;4.47;;;1.50;;
29662;SDS011;16578;53.266;7.920;2024-03-25T03:01:25;8.02;;;1.95;;
29662;SDS011;16578;53.266;7.920;2024-03-25T03:03:50;6.30;;;1.83;;
29662;SDS011;16578;53.266;7.920;2024-03-25T03:06:16;5.85;;;1.80;;
29662;SDS011;16578;53.266;7.920;2024-03-25T03:08:42;8.55;;;1.67;;
29662;SDS011;16578;53.266;7.920;2024-03-25T03:11:07;7.47;;;1.80;;
29662;SDS011;16578;53.266;7.920;2024-03-25T03:13:33;6.07;;;1.73;;
29662;SDS011;16578;53.266;7.920;2024-03-25T03:15:58;13.77;;;1.70;;
29662;SDS011;16578;53.266;7.920;2024-03-25T03:18:24;7.32;;;1.83;;
29662;SDS011;16578;53.266;7.920;2024-03-25T03:20:49;7.20;;;1.55;;
29662;SDS011;16578;53.266;7.920;2024-03-25T03:23:15;6.50;;;1.63;;
29662;SDS011;16578;53.266;7.920;2024-03-25T03:25:40;9.32;;;1.90;;
29662;SDS011;16578;53.266;7.920;2024-03-25T03:28:06;6.30;;;1.60;;
29662;SDS011;16578;53.266;7.920;2024-03-25T03:30:32;6.97;;;1.95;;
29662;SDS011;16578;53.266;7.920;2024-03-25T03:32:57;11.20;;;1.80;;
29662;SDS011;16578;53.266;7.920;2024-03-25T03:35:23;3.75;;;1.63;;
29662;SDS011;16578;53.266;7.920;2024-03-25T03:37:48;7.38;;;2.35;;
29662;SDS011;16578;53.266;7.920;2024-03-25T03:40:14;6.15;;;1.95;;
29662;SDS011;16578;53.266;7.920;2024-03-25T03:42:39;9.20;;;2.42;;
29662;SDS011;16578;53.266;7.920;2024-03-25T03:45:06;7.78;;;1.95;;
29662;SDS011;16578;53.266;7.920;2024-03-25T03:47:32;7.13;;;2.10;;
29662;SDS011;16578;53.266;7.920;2024-03-25T03:49:57;9.27;;;2.08;;
29662;SDS011;16578;53.266;7.920;2024-03-25T03:52:23;9.35;;;2.45;;
29662;SDS011;16578;53.266;7.920;2024-03-25T03:54:49;6.75;;;2.00;;
29662;SDS011;16578;53.266;7.920;2024-03-25T03:57:14;9.68;;;1.92;;
29662;SDS011;16578;53.266;7.920;2024-03-25T03:59:40;6.30;;;2.00;;
29662;SDS011;16578;53.266;7.920;2024-03-25T04:02:05;5.70;;;1.67;;
29662;SDS011;16578;53.266;7.920;2024-03-25T04:04:31;11.95;;;2.13;;
29662;SDS011;16578;53.266;7.920;2024-03-25T04:06:56;9.82;;;2.10;;
29662;SDS011;16578;53.266;7.920;2024-03-25T04:09:22;7.68;;;2.00;;
29662;SDS011;16578;53.266;7.920;2024-03-25T04:11:48;9.23;;;2.50;;
29662;SDS011;16578;53.266;7.920;2024-03-25T04:14:14;13.00;;;2.15;;
29662;SDS011;16578;53.266;7.920;2024-03-25T04:16:40;8.20;;;1.88;;
29662;SDS011;16578;53.266;7.920;2024-03-25T04:19:05;9.10;;;2.30;;
29662;SDS011;16578;53.266;7.920;2024-03-25T04:21:31;10.88;;;2.15;;
29662;SDS011;16578;53.266;7.920;2024-03-25T04:23:57;9.65;;;1.92;;
29662;SDS011;16578;53.266;7.920;2024-03-25T04:26:22;11.18;;;2.33;;
29662;SDS011;16578;53.266;7.920;2024-03-25T04:28:48;11.43;;;2.67;;
29662;SDS011;16578;53.266;7.920;2024-03-25T04:31:14;7.57;;;1.95;;
29662;SDS011;16578;53.266;7.920;2024-03-25T04:33:40;16.50;;;2.88;;
29662;SDS011;16578;53.266;7.920;2024-03-25T04:36:06;13.00;;;2.60;;
29662;SDS011;16578;53.266;7.920;2024-03-25T04:38:32;6.90;;;2.30;;
29662;SDS011;16578;53.266;7.920;2024-03-25T04:40:57;7.88;;;1.90;;
29662;SDS011;16578;53.266;7.920;2024-03-25T04:43:23;6.82;;;1.90;;
29662;SDS011;16578;53.266;7.920;2024-03-25T04:45:49;8.32;;;2.00;;
29662;SDS011;16578;53.266;7.920;2024-03-25T04:48:14;3.95;;;1.70;;
29662;SDS011;16578;53.266;7.920;2024-03-25T04:50:40;6.93;;;1.83;;
29662;SDS011;16578;53.266;7.920;2024-03-25T04:53:05;6.13;;;2.10;;
29662;SDS011;16578;53.266;7.920;2024-03-25T04:55:31;7.53;;;1.65;;
29662;SDS011;16578;53.266;7.920;2024-03-25T04:57:56;6.03;;;2.03;;
29662;SDS011;16578;53.266;7.920;2024-03-25T05:00:22;8.05;;;1.63;;
29662;SDS011;16578;53.266;7.920;2024-03-25T05:02:48;4.78;;;1.60;;
29662;SDS011;16578;53.266;7.920;2024-03-25T05:05:13;8.13;;;2.08;;
29662;SDS011;16578;53.266;7.920;2024-03-25T05:07:39;7.72;;;1.70;;
29662;SDS011;16578;53.266;7.920;2024-03-25T05:10:04;9.63;;;2.08;;
29662;SDS011;16578;53.266;7.920;2024-03-25T05:12:30;6.43;;;1.80;;
29662;SDS011;16578;53.266;7.920;2024-03-25T05:14:56;12.32;;;2.08;;
29662;SDS011;16578;53.266;7.920;2024-03-25T05:17:22;5.93;;;1.88;;
29662;SDS011;16578;53.266;7.920;2024-03-25T05:19:47;10.35;;;2.03;;
29662;SDS011;16578;53.266;7.920;2024-03-25T05:22:13;9.95;;;1.77;;
29662;SDS011;16578;53.266;7.920;2024-03-25T05:24:38;7.97;;;1.90;;
29662;SDS011;16578;53.266;7.920;2024-03-25T05:27:04;5.18;;;1.73;;
29662;SDS011;16578;53.266;7.920;2024-03-25T05:29:30;6.32;;;1.95;;
29662;SDS011;16578;53.266;7.920;2024-03-25T05:31:56;6.13;;;1.58;;
29662;SDS011;16578;53.266;7.920;2024-03-25T05:34:23;9.47;;;2.43;;
29662;SDS011;16578;53.266;7.920;2024-03-25T05:36:49;6.07;;;1.75;;
29662;SDS011;16578;53.266;7.920;2024-03-25T05:39:15;5.53;;;2.15;;
29662;SDS011;16578;53.266;7.920;2024-03-25T05:41:41;8.45;;;1.80;;
29662;SDS011;16578;53.266;7.920;2024-03-25T05:44:06;9.07;;;2.03;;
29662;SDS011;16578;53.266;7.920;2024-03-25T05:46:32;10.93;;;2.22;;
29662;SDS011;16578;53.266;7.920;2024-03-25T05:49:00;7.90;;;1.88;;
29662;SDS011;16578;53.266;7.920;2024-03-25T05:51:27;7.68;;;2.00;;
29662;SDS011;16578;53.266;7.920;2024-03-25T05:53:52;11.93;;;2.00;;
29662;SDS011;16578;53.266;7.920;2024-03-25T05:56:18;5.82;;;2.40;;
29662;SDS011;16578;53.266;7.920;2024-03-25T05:58:43;11.85;;;2.65;;
29662;SDS011;16578;53.266;7.920;2024-03-25T06:01:09;8.93;;;1.77;;
29662;SDS011;16578;53.266;7.920;2024-03-25T06:03:34;9.25;;;1.92;;
29662;SDS011;16578;53.266;7.920;2024-03-25T06:06:00;9.25;;;1.90;;
29662;SDS011;16578;53.266;7.920;2024-03-25T06:08:26;6.97;;;1.75;;
29662;SDS011;16578;53.266;7.920;2024-03-25T06:10:52;8.88;;;2.22;;
29662;SDS011;16578;53.266;7.920;2024-03-25T06:13:18;10.27;;;1.95;;
29662;SDS011;16578;53.266;7.920;2024-03-25T06:15:44;8.43;;;1.83;;
29662;SDS011;16578;53.266;7.920;2024-03-25T06:18:10;6.70;;;1.92;;
29662;SDS011;16578;53.266;7.920;2024-03-25T06:20:36;9.90;;;1.75;;
29662;SDS011;16578;53.266;7.920;2024-03-25T06:23:02;9.32;;;2.20;;
29662;SDS011;16578;53.266;7.920;2024-03-25T06:25:27;10.73;;;1.90;;
29662;SDS011;16578;53.266;7.920;2024-03-25T06:27:56;7.95;;;2.45;;
29662;SDS011;16578;53.266;7.920;2024-03-25T06:30:22;7.88;;;1.77;;
29662;SDS011;16578;53.266;7.920;2024-03-25T06:33:06;10.15;;;1.90;;
29662;SDS011;16578;53.266;7.920;2024-03-25T06:35:50;6.28;;;1.70;;
29662;SDS011;16578;53.266;7.920;2024-03-25T06:38:17;9.25;;;2.58;;
29662;SDS011;16578;53.266;7.920;2024-03-25T06:40:42;7.65;;;1.85;;
29662;SDS011;16578;53.266;7.920;2024-03-25T06:43:09;9.00;;;2.08;;
29662;SDS011;16578;53.266;7.920;2024-03-25T06:45:35;11.20;;;2.22;;
29662;SDS011;16578;53.266;7.920;2024-03-25T06:48:01;5.03;;;1.80;;
29662;SDS011;16578;53.266;7.920;2024-03-25T06:50:26;10.73;;;1.83;;
29662;SDS011;16578;53.266;7.920;2024-03-25T06:52:52;8.57;;;1.73;;
29662;SDS011;16578;53.266;7.920;2024-03-25T06:55:17;6.65;;;1.70;;
29662;SDS011;16578;53.266;7.920;2024-03-25T06:57:47;13.43;;;2.05;;
29662;SDS011;16578;53.266;7.920;2024-03-25T07:00:13;7.57;;;1.88;;
29662;SDS011;16578;53.266;7.920;2024-03-25T07:02:39;13.48;;;2.65;;
29662;SDS011;16578;53.266;7.920;2024-03-25T07:05:05;13.15;;;2.17;;
29662;SDS011;16578;53.266;7.920;2024-03-25T07:07:31;13.85;;;2.75;;
29662;SDS011;16578;53.266;7.920;2024-03-25T07:09:59;7.80;;;2.00;;
29662;SDS011;16578;53.266;7.920;2024-03-25T07:12:24;12.65;;;2.97;;
29662;SDS011;16578;53.266;7.920;2024-03-25T07:14:50;13.15;;;3.35;;
29662;SDS011;16578;53.266;7.920;2024-03-25T07:17:15;11.43;;;3.28;;
29662;SDS011;16578;53.266;7.920;2024-03-25T07:19:41;7.40;;;2.22;;
29662;SDS011;16578;53.266;7.920;2024-03-25T07:22:07;8.52;;;3.55;;
29662;SDS011;16578;53.266;7.920;2024-03-25T07:24:33;13.25;;;4.22;;
29662;SDS011;16578;53.266;7.920;2024-03-25T07:26:58;13.27;;;4.43;;
29662;SDS011;16578;53.266;7.920;2024-03-25T07:29:24;8.38;;;2.80;;
29662;SDS011;16578;53.266;7.920;2024-03-25T07:31:49;7.82;;;2.45;;
29662;SDS011;16578;53.266;7.920;2024-03-25T07:34:15;14.70;;;2.72;;
29662;SDS011;16578;53.266;7.920;2024-03-25T07:36:40;7.57;;;2.10;;
29662;SDS011;16578;53.266;7.920;2024-03-25T07:39:07;9.30;;;1.83;;
29662;SDS011;16578;53.266;7.920;2024-03-25T07:41:35;9.35;;;1.70;;
29662;SDS011;16578;53.266;7.920;2024-03-25T07:44:01;5.85;;;1.48;;
29662;SDS011;16578;53.266;7.920;2024-03-25T07:46:27;6.97;;;2.47;;
29662;SDS011;16578;53.266;7.920;2024-03-25T07:48:52;9.10;;;2.05;;
29662;SDS011;16578;53.266;7.920;2024-03-25T07:51:18;7.78;;;1.52;;
29662;SDS011;16578;53.266;7.920;2024-03-25T07:53:43;8.30;;;1.92;;
29662;SDS011;16578;53.266;7.920;2024-03-25T07:56:09;10.30;;;2.10;;
29662;SDS011;16578;53.266;7.920;2024-03-25T07:58:34;9.32;;;1.60;;
29662;SDS011;16578;53.266;7.920;2024-03-25T08:01:00;9.40;;;1.77;;
29662;SDS011;16578;53.266;7.920;2024-03-25T08:03:26;10.05;;;2.05;;
29662;SDS011;16578;53.266;7.920;2024-03-25T08:05:51;6.95;;;1.77;;
29662;SDS011;16578;53.266;7.920;2024-03-25T08:08:17;4.97;;;1.70;;
29662;SDS011;16578;53.266;7.920;2024-03-25T08:10:42;12.38;;;2.08;;
29662;SDS011;16578;53.266;7.920;2024-03-25T08:13:08;8.85;;;2.20;;
29662;SDS011;16578;53.266;7.920;2024-03-25T08:15:33;9.98;;;1.80;;
29662;SDS011;16578;53.266;7.920;2024-03-25T08:17:59;7.60;;;1.67;;
29662;SDS011;16578;53.266;7.920;2024-03-25T08:20:24;4.25;;;1.55;;
29662;SDS011;16578;53.266;7.920;2024-03-25T08:22:50;5.35;;;1.70;;
29662;SDS011;16578;53.266;7.920;2024-03-25T08:25:15;8.27;;;1.85;;
29662;SDS011;16578;53.266;7.920;2024-03-25T08:27:41;6.88;;;1.67;;
29662;SDS011;16578;53.266;7.920;2024-03-25T08:30:07;10.10;;;1.95;;
29662;SDS011;16578;53.266;7.920;2024-03-25T08:32:33;5.82;;;1.88;;
29662;SDS011;16578;53.266;7.920;2024-03-25T08:34:58;6.93;;;1.83;;
29662;SDS011;16578;53.266;7.920;2024-03-25T08:37:24;4.57;;;1.58;;
29662;SDS011;16578;53.266;7.920;2024-03-25T08:39:49;6.63;;;1.60;;
29662;SDS011;16578;53.266;7.920;2024-03-25T08:42:15;7.32;;;2.05;;
29662;SDS011;16578;53.266;7.920;2024-03-25T08:44:40;5.13;;;1.90;;
29662;SDS011;16578;53.266;7.920;2024-03-25T08:47:06;6.30;;;1.52;;
29662;SDS011;16578;53.266;7.920;2024-03-25T08:49:32;17.20;;;3.03;;
29662;SDS011;16578;53.266;7.920;2024-03-25T08:51:57;8.88;;;1.88;;
29662;SDS011;16578;53.266;7.920;2024-03-25T08:54:23;5.85;;;1.42;;
29662;SDS011;16578;53.266;7.920;2024-03-25T08:56:48;9.50;;;1.73;;
29662;SDS011;16578;53.266;7.920;2024-03-25T08:59:14;6.95;;;1.95;;
29662;SDS011;16578;53.266;7.920;2024-03-25T09:01:39;6.50;;;1.42;;
29662;SDS011;16578;53.266;7.920;2024-03-25T09:04:05;9.20;;;2.13;;
29662;SDS011;16578;53.266;7.920;2024-03-25T09:06:31;10.80;;;2.00;;
29662;SDS011;16578;53.266;7.920;2024-03-25T09:08:56;7.35;;;1.85;;
29662;SDS011;16578;53.266;7.920;2024-03-25T09:11:40;10.65;;;2.13;;
29662;SDS011;16578;53.266;7.920;2024-03-25T09:14:06;3.38;;;1.38;;
29662;SDS011;16578;53.266;7.920;2024-03-25T09:16:32;5.45;;;1.63;;
29662;SDS011;16578;53.266;7.920;2024-03-25T09:18:57;11.43;;;2.08;;
29662;SDS011;16578;53.266;7.920;2024-03-25T09:21:23;6.57;;;1.60;;
29662;SDS011;16578;53.266;7.920;2024-03-25T09:23:49;5.53;;;1.55;;
29662;SDS011;16578;53.266;7.920;2024-03-25T09:26:15;7.95;;;1.55;;
29662;SDS011;16578;53.266;7.920;2024-03-25T09:28:41;4.38;;;1.40;;
29662;SDS011;16578;53.266;7.920;2024-03-25T09:31:06;3.95;;;1.13;;
29662;SDS011;16578;53.266;7.920;2024-03-25T09:33:32;5.57;;;1.33;;
29662;SDS011;16578;53.266;7.920;2024-03-25T09:35:58;5.25;;;1.55;;
29662;SDS011;16578;53.266;7.920;2024-03-25T09:38:23;5.32;;;1.40;;
29662;SDS011;16578;53.266;7.920;2024-03-25T09:40:50;5.15;;;1.25;;
29662;SDS011;16578;53.266;7.920;2024-03-25T09:46:17;5.80;;;1.38;;
29662;SDS011;16578;53.266;7.920;2024-03-25T09:48:43;3.25;;;1.20;;
29662;SDS011;16578;53.266;7.920;2024-03-25T09:51:11;10.57;;;1.65;;
29662;SDS011;16578;53.266;7.920;2024-03-25T09:53:37;6.22;;;1.52;;
29662;SDS011;16578;53.266;7.920;2024-03-25T09:56:03;5.47;;;1.60;;
29662;SDS011;16578;53.266;7.920;2024-03-25T09:58:30;5.70;;;1.88;;
29662;SDS011;16578;53.266;7.920;2024-03-25T10:00:58;8.77;;;2.42;;
29662;SDS011;16578;53.266;7.920;2024-03-25T10:03:24;7.20;;;1.73;;
29662;SDS011;16578;53.266;7.920;2024-03-25T10:05:50;8.63;;;1.92;;
29662;SDS011;16578;53.266;7.920;2024-03-25T10:08:22;6.20;;;1.70;;
29662;SDS011;16578;53.266;7.920;2024-03-25T10:10:47;8.68;;;1.67;;
29662;SDS011;16578;53.266;7.920;2024-03-25T10:13:13;8.95;;;1.95;;
29662;SDS011;16578;53.266;7.920;2024-03-25T10:15:40;4.35;;;1.70;;
29662;SDS011;16578;53.266;7.920;2024-03-25T10:18:06;6.15;;;1.60;;
29662;SDS011;16578;53.266;7.920;2024-03-25T10:20:33;8.60;;;1.85;;
29662;SDS011;16578;53.266;7.920;2024-03-25T10:22:59;5.72;;;1.30;;
29662;SDS011;16578;53.266;7.920;2024-03-25T10:25:28;6.28;;;1.75;;
29662;SDS011;16578;53.266;7.920;2024-03-25T10:28:01;7.15;;;2.35;;
29662;SDS011;16578;53.266;7.920;2024-03-25T10:30:28;5.93;;;1.83;;
29662;SDS011;16578;53.266;7.920;2024-03-25T10:33:01;6.15;;;1.90;;
29662;SDS011;16578;53.266;7.920;2024-03-25T10:35:28;3.00;;;1.30;;
29662;SDS011;16578;53.266;7.920;2024-03-25T10:37:56;5.78;;;1.88;;
29662;SDS011;16578;53.266;7.920;2024-03-25T10:40:29;5.25;;;1.35;;
29662;SDS011;16578;53.266;7.920;2024-03-25T10:43:09;6.85;;;1.85;;
29662;SDS011;16578;53.266;7.920;2024-03-25T10:45:57;5.13;;;1.73;;
29662;SDS011;16578;53.266;7.920;2024-03-25T10:48:37;6.40;;;1.70;;
29662;SDS011;16578;53.266;7.920;2024-03-25T10:51:05;5.93;;;2.08;;
29662;SDS011;16578;53.266;7.920;2024-03-25T10:53:34;8.15;;;1.63;;
29662;SDS011;16578;53.266;7.920;2024-03-25T10:56:01;7.88;;;1.50;;
29662;SDS011;16578;53.266;7.920;2024-03-25T10:58:29;4.80;;;1.48;;
29662;SDS011;16578;53.266;7.920;2024-03-25T11:00:56;6.45;;;1.80;;
29662;SDS011;16578;53.266;7.920;2024-03-25T11:03:23;5.43;;;1.42;;
29662;SDS011;16578;53.266;7.920;2024-03-25T11:05:49;5.53;;;1.63;;
29662;SDS011;16578;53.266;7.920;2024-03-25T11:08:16;5.75;;;1.70;;
29662;SDS011;16578;53.266;7.920;2024-03-25T11:10:46;6.85;;;2.05;;
29662;SDS011;16578;53.266;7.920;2024-03-25T11:13:18;5.55;;;1.73;;
29662;SDS011;16578;53.266;7.920;2024-03-25T11:15:45;3.95;;;1.30;;
29662;SDS011;16578;53.266;7.920;2024-03-25T11:18:13;4.40;;;1.45;;
29662;SDS011;16578;53.266;7.920;2024-03-25T11:20:39;4.88;;;1.08;;
29662;SDS011;16578;53.266;7.920;2024-03-25T11:23:08;6.00;;;1.52;;
29662;SDS011;16578;53.266;7.920;2024-03-25T11:25:36;4.03;;;1.48;;
29662;SDS011;16578;53.266;7.920;2024-03-25T11:28:02;5.68;;;2.30;;
29662;SDS011;16578;53.266;7.920;2024-03-25T11:30:29;8.85;;;2.47;;
29662;SDS011;16578;53.266;7.920;2024-03-25T11:32:56;7.78;;;2.20;;
29662;SDS011;16578;53.266;7.920;2024-03-25T11:35:22;4.80;;;1.65;;
29662;SDS011;16578;53.266;7.920;2024-03-25T11:37:48;6.35;;;1.65;;
29662;SDS011;16578;53.266;7.920;2024-03-25T11:40:15;4.30;;;1.52;;
29662;SDS011;16578;53.266;7.920;2024-03-25T11:42:44;5.50;;;1.83;;
29662;SDS011;16578;53.266;7.920;2024-03-25T11:45:17;8.63;;;2.05;;
29662;SDS011;16578;53.266;7.920;2024-03-25T11:47:45;7.22;;;1.77;;
29662;SDS011;16578;53.266;7.920;2024-03-25T11:50:13;7.10;;;1.95;;
29662;SDS011;16578;53.266;7.920;2024-03-25T11:52:40;3.45;;;1.20;;
29662;SDS011;16578;53.266;7.920;2024-03-25T11:55:06;7.57;;;1.58;;
29662;SDS011;16578;53.266;7.920;2024-03-25T11:57:36;5.47;;;1.33;;
29662;SDS011;16578;53.266;7.920;2024-03-25T12:00:03;8.52;;;1.83;;
29662;SDS011;16578;53.266;7.920;2024-03-25T12:02:35;3.88;;;1.48;;
29662;SDS011;16578;53.266;7.920;2024-03-25T12:05:02;6.30;;;1.40;;
29662;SDS011;16578;53.266;7.920;2024-03-25T12:07:28;6.65;;;1.90;;
29662;SDS011;16578;53.266;7.920;2024-03-25T12:09:54;5.13;;;1.52;;
29662;SDS011;16578;53.266;7.920;2024-03-25T12:12:38;6.90;;;1.80;;
29662;SDS011;16578;53.266;7.920;2024-03-25T12:15:05;4.00;;;1.55;;
29662;SDS011;16578;53.266;7.920;2024-03-25T12:17:32;6.45;;;2.00;;
29662;SDS011;16578;53.266;7.920;2024-03-25T12:22:28;6.97;;;2.20;;
29662;SDS011;16578;53.266;7.920;2024-03-25T12:24:56;5.38;;;1.95;;
29662;SDS011;16578;53.266;7.920;2024-03-25T12:27:22;6.85;;;2.08;;
29662;SDS011;16578;53.266;7.920;2024-03-25T12:29:56;4.63;;;1.65;;
29662;SDS011;16578;53.266;7.920;2024-03-25T12:32:30;6.25;;;1.45;;
29662;SDS011;16578;53.266;7.920;2024-03-25T12:34:57;6.18;;;1.55;;
29662;SDS011;16578;53.266;7.920;2024-03-25T12:37:23;4.95;;;1.40;;
29662;SDS011;16578;53.266;7.920;2024-03-25T12:39:51;6.47;;;1.70;;
29662;SDS011;16578;53.266;7.920;2024-03-25T12:42:16;7.03;;;1.65;;
29662;SDS011;16578;53.266;7.920;2024-03-25T12:44:42;10.25;;;1.98;;
29662;SDS011;16578;53.266;7.920;2024-03-25T12:47:07;5.60;;;1.40;;
29662;SDS011;16578;53.266;7.920;2024-03-25T12:49:33;5.82;;;1.40;;
29662;SDS011;16578;53.266;7.920;2024-03-25T12:51:59;3.42;;;1.33;;
29662;SDS011;16578;53.266;7.920;2024-03-25T12:54:24;5.20;;;1.48;;
29662;SDS011;16578;53.266;7.920;2024-03-25T12:56:50;3.38;;;1.00;;
29662;SDS011;16578;53.266;7.920;2024-03-25T12:59:15;4.72;;;1.48;;
29662;SDS011;16578;53.266;7.920;2024-03-25T13:01:41;4.68;;;1.10;;
29662;SDS011;16578;53.266;7.920;2024-03-25T13:04:07;3.78;;;1.15;;
29662;SDS011;16578;53.266;7.920;2024-03-25T13:06:32;3.08;;;1.00;;
29662;SDS011;16578;53.266;7.920;2024-03-25T13:08:58;2.28;;;0.90;;
29662;SDS011;16578;53.266;7.920;2024-03-25T13:11:24;3.13;;;1.10;;
29662;SDS011;16578;53.266;7.920;2024-03-25T13:13:49;3.25;;;1.17;;
29662;SDS011;16578;53.266;7.920;2024-03-25T13:16:15;2.60;;;0.93;;
29662;SDS011;16578;53.266;7.920;2024-03-25T13:18:40;3.53;;;1.33;;
29662;SDS011;16578;53.266;7.920;2024-03-25T13:21:06;5.93;;;1.15;;
29662;SDS011;16578;53.266;7.920;2024-03-25T13:23:31;3.67;;;1.30;;
29662;SDS011;16578;53.266;7.920;2024-03-25T13:25:57;3.75;;;1.20;;
29662;SDS011;16578;53.266;7.920;2024-03-25T13:28:23;4.47;;;1.25;;
29662;SDS011;16578;53.266;7.920;2024-03-25T13:30:48;3.03;;;1.33;;
29662;SDS011;16578;53.266;7.920;2024-03-25T13:33:14;6.88;;;1.80;;
29662;SDS011;16578;53.266;7.920;2024-03-25T13:35:39;2.17;;;1.02;;
29662;SDS011;16578;53.266;7.920;2024-03-25T13:38:05;1.17;;;0.95;;
29662;SDS011;16578;53.266;7.920;2024-03-25T13:40:30;3.88;;;1.27;;
29662;SDS011;16578;53.266;7.920;2024-03-25T13:42:59;4.30;;;1.30;;
29662;SDS011;16578;53.266;7.920;2024-03-25T13:45:24;4.13;;;1.45;;
29662;SDS011;16578;53.266;7.920;2024-03-25T13:47:50;5.22;;;1.70;;
29662;SDS011;16578;53.266;7.920;2024-03-25T13:50:15;3.17;;;1.33;;
29662;SDS011;16578;53.266;7.920;2024-03-25T13:52:41;5.13;;;1.20;;
29662;SDS011;16578;53.266;7.920;2024-03-25T13:55:06;4.10;;;1.40;;
29662;SDS011;16578;53.266;7.920;2024-03-25T13:57:32;11.05;;;1.50;;
29662;SDS011;16578;53.266;7.920;2024-03-25T13:59:58;3.03;;;1.50;;
29662;SDS011;16578;53.266;7.920;2024-03-25T14:02:23;6.95;;;2.05;;
29662;SDS011;16578;53.266;7.920;2024-03-25T14:04:49;2.53;;;1.40;;
29662;SDS011;16578;53.266;7.920;2024-03-25T14:07:15;4.57;;;1.27;;
29662;SDS011;16578;53.266;7.920;2024-03-25T14:09:40;5.22;;;1.48;;
29662;SDS011;16578;53.266;7.920;2024-03-25T14:12:06;5.85;;;1.35;;
29662;SDS011;16578;53.266;7.920;2024-03-25T14:14:31;3.60;;;1.40;;
29662;SDS011;16578;53.266;7.920;2024-03-25T14:16:57;3.75;;;1.30;;
29662;SDS011;16578;53.266;7.920;2024-03-25T14:19:23;4.05;;;1.50;;
29662;SDS011;16578;53.266;7.920;2024-03-25T14:21:48;2.42;;;1.20;;
29662;SDS011;16578;53.266;7.920;2024-03-25T14:24:15;2.95;;;1.15;;
29662;SDS011;16578;53.266;7.920;2024-03-25T14:26:40;2.20;;;1.08;;
29662;SDS011;16578;53.266;7.920;2024-03-25T14:29:06;3.03;;;1.35;;
29662;SDS011;16578;53.266;7.920;2024-03-25T14:31:31;2.58;;;1.23;;
29662;SDS011;16578;53.266;7.920;2024-03-25T14:33:58;4.63;;;1.15;;
29662;SDS011;16578;53.266;7.920;2024-03-25T14:36:23;2.13;;;1.20;;
29662;SDS011;16578;53.266;7.920;2024-03-25T14:38:49;7.13;;;2.10;;
29662;SDS011;16578;53.266;7.920;2024-03-25T14:41:18;3.30;;;1.50;;
29662;SDS011;16578;53.266;7.920;2024-03-25T14:43:45;3.28;;;1.08;;
29662;SDS011;16578;53.266;7.920;2024-03-25T14:46:11;3.67;;;1.50;;
29662;SDS011;16578;53.266;7.920;2024-03-25T14:48:36;3.20;;;1.08;;